sensor_id;sensor_type;location;lat;lon;timestamp;P1;durP1;ratioP1;P2;durP2;ratioP2
39188;SDS011;24915;50.858;4.376;2023-04-10T00:02:20;10.02;;;7.57;;
39188;SDS011;24915;50.858;4.376;2023-04-10T00:04:46;11.88;;;10.63;;
39188;SDS011;24915;50.858;4.376;2023-04-10T00:07:12;13.75;;;8.13;;
39188;SDS011;24915;50.858;4.376;2023-04-10T00:09:38;13.75;;;7.82;;
39188;SDS011;24915;50.858;4.376;2023-04-10T00:12:04;11.95;;;7.75;;
39188;SDS011;24915;50.858;4.376;2023-04-10T00:14:30;13.63;;;8.07;;
39188;SDS011;24915;50.858;4.376;2023-04-10T00:16:56;11.52;;;7.90;;
39188;SDS011;24915;50.858;4.376;2023-04-10T00:19:22;10.30;;;8.50;;
39188;SDS011;24915;50.858;4.376;2023-04-10T00:21:51;10.82;;;8.55;;
39188;SDS011;24915;50.858;4.376;2023-04-10T00:24:17;13.70;;;8.65;;
39188;SDS011;24915;50.858;4.376;2023-04-10T00:26:42;10.20;;;8.32;;
39188;SDS011;24915;50.858;4.376;2023-04-10T00:29:08;12.05;;;8.80;;
39188;SDS011;24915;50.858;4.376;2023-04-10T00:31:34;10.60;;;8.23;;
39188;SDS011;24915;50.858;4.376;2023-04-10T00:34:00;13.77;;;9.55;;
39188;SDS011;24915;50.858;4.376;2023-04-10T00:36:25;11.45;;;8.88;;
39188;SDS011;24915;50.858;4.376;2023-04-10T00:38:51;14.77;;;8.65;;
39188;SDS011;24915;50.858;4.376;2023-04-10T00:41:17;12.52;;;8.15;;
39188;SDS011;24915;50.858;4.376;2023-04-10T00:43:43;12.75;;;8.15;;
39188;SDS011;24915;50.858;4.376;2023-04-10T00:46:09;14.38;;;9.50;;
39188;SDS011;24915;50.858;4.376;2023-04-10T00:48:36;12.30;;;8.55;;
39188;SDS011;24915;50.858;4.376;2023-04-10T00:51:02;12.27;;;8.52;;
39188;SDS011;24915;50.858;4.376;2023-04-10T00:53:28;11.45;;;9.35;;
39188;SDS011;24915;50.858;4.376;2023-04-10T00:55:55;16.02;;;10.63;;
39188;SDS011;24915;50.858;4.376;2023-04-10T00:58:21;15.70;;;11.45;;
39188;SDS011;24915;50.858;4.376;2023-04-10T01:00:47;11.02;;;8.52;;
39188;SDS011;24915;50.858;4.376;2023-04-10T01:03:13;11.65;;;8.63;;
39188;SDS011;24915;50.858;4.376;2023-04-10T01:05:46;12.70;;;8.95;;
39188;SDS011;24915;50.858;4.376;2023-04-10T01:14:15;10.05;;;8.85;;
39188;SDS011;24915;50.858;4.376;2023-04-10T01:22:35;11.07;;;8.35;;
39188;SDS011;24915;50.858;4.376;2023-04-10T01:27:57;11.05;;;8.32;;
39188;SDS011;24915;50.858;4.376;2023-04-10T01:30:46;9.32;;;8.05;;
39188;SDS011;24915;50.858;4.376;2023-04-10T01:33:15;12.55;;;8.10;;
39188;SDS011;24915;50.858;4.376;2023-04-10T01:35:46;11.48;;;8.18;;
39188;SDS011;24915;50.858;4.376;2023-04-10T01:38:16;14.65;;;9.93;;
39188;SDS011;24915;50.858;4.376;2023-04-10T01:40:44;9.63;;;7.97;;
39188;SDS011;24915;50.858;4.376;2023-04-10T01:43:15;10.48;;;7.88;;
39188;SDS011;24915;50.858;4.376;2023-04-10T01:45:42;9.40;;;6.85;;
39188;SDS011;24915;50.858;4.376;2023-04-10T01:48:10;8.43;;;7.28;;
39188;SDS011;24915;50.858;4.376;2023-04-10T01:50:37;10.13;;;7.65;;
39188;SDS011;24915;50.858;4.376;2023-04-10T01:53:04;8.25;;;6.95;;
39188;SDS011;24915;50.858;4.376;2023-04-10T01:55:31;9.77;;;7.28;;
39188;SDS011;24915;50.858;4.376;2023-04-10T01:57:58;8.32;;;7.30;;
39188;SDS011;24915;50.858;4.376;2023-04-10T02:00:25;8.35;;;6.82;;
39188;SDS011;24915;50.858;4.376;2023-04-10T02:02:51;8.02;;;7.22;;
39188;SDS011;24915;50.858;4.376;2023-04-10T02:05:17;8.10;;;6.80;;
39188;SDS011;24915;50.858;4.376;2023-04-10T02:10:40;7.90;;;6.53;;
39188;SDS011;24915;50.858;4.376;2023-04-10T02:13:13;8.20;;;6.95;;
39188;SDS011;24915;50.858;4.376;2023-04-10T02:15:43;9.43;;;7.05;;
39188;SDS011;24915;50.858;4.376;2023-04-10T02:18:11;9.02;;;6.43;;
39188;SDS011;24915;50.858;4.376;2023-04-10T02:20:41;8.82;;;6.80;;
39188;SDS011;24915;50.858;4.376;2023-04-10T02:23:06;9.55;;;6.90;;
39188;SDS011;24915;50.858;4.376;2023-04-10T02:25:33;9.13;;;6.70;;
39188;SDS011;24915;50.858;4.376;2023-04-10T02:28:05;8.93;;;6.88;;
39188;SDS011;24915;50.858;4.376;2023-04-10T02:30:32;6.97;;;6.20;;
39188;SDS011;24915;50.858;4.376;2023-04-10T02:32:58;8.32;;;6.20;;
39188;SDS011;24915;50.858;4.376;2023-04-10T02:35:24;10.13;;;7.07;;
39188;SDS011;24915;50.858;4.376;2023-04-10T02:37:51;9.50;;;7.05;;
39188;SDS011;24915;50.858;4.376;2023-04-10T02:40:17;8.00;;;6.60;;
39188;SDS011;24915;50.858;4.376;2023-04-10T02:42:43;8.30;;;6.60;;
39188;SDS011;24915;50.858;4.376;2023-04-10T02:45:09;9.30;;;6.90;;
39188;SDS011;24915;50.858;4.376;2023-04-10T02:47:34;11.40;;;6.25;;
39188;SDS011;24915;50.858;4.376;2023-04-10T02:50:00;9.57;;;6.45;;
39188;SDS011;24915;50.858;4.376;2023-04-10T02:52:26;6.95;;;6.25;;
39188;SDS011;24915;50.858;4.376;2023-04-10T02:54:52;8.70;;;6.32;;
39188;SDS011;24915;50.858;4.376;2023-04-10T02:57:17;7.68;;;6.10;;
39188;SDS011;24915;50.858;4.376;2023-04-10T02:59:43;7.80;;;6.05;;
39188;SDS011;24915;50.858;4.376;2023-04-10T03:02:09;6.65;;;5.95;;
39188;SDS011;24915;50.858;4.376;2023-04-10T03:04:34;7.47;;;5.95;;
39188;SDS011;24915;50.858;4.376;2023-04-10T03:07:00;9.10;;;5.88;;
39188;SDS011;24915;50.858;4.376;2023-04-10T03:09:26;7.40;;;6.00;;
39188;SDS011;24915;50.858;4.376;2023-04-10T03:11:52;7.55;;;6.07;;
39188;SDS011;24915;50.858;4.376;2023-04-10T03:14:18;6.78;;;5.82;;
39188;SDS011;24915;50.858;4.376;2023-04-10T03:16:43;6.60;;;5.93;;
39188;SDS011;24915;50.858;4.376;2023-04-10T03:19:11;6.05;;;5.45;;
39188;SDS011;24915;50.858;4.376;2023-04-10T03:21:37;5.43;;;4.90;;
39188;SDS011;24915;50.858;4.376;2023-04-10T03:24:03;6.22;;;5.63;;
39188;SDS011;24915;50.858;4.376;2023-04-10T03:26:29;5.82;;;5.32;;
39188;SDS011;24915;50.858;4.376;2023-04-10T03:28:55;6.18;;;5.57;;
39188;SDS011;24915;50.858;4.376;2023-04-10T03:31:21;7.45;;;5.97;;
39188;SDS011;24915;50.858;4.376;2023-04-10T03:33:47;6.10;;;5.43;;
39188;SDS011;24915;50.858;4.376;2023-04-10T03:36:12;6.50;;;5.90;;
39188;SDS011;24915;50.858;4.376;2023-04-10T03:38:38;7.78;;;6.03;;
39188;SDS011;24915;50.858;4.376;2023-04-10T03:41:04;7.82;;;6.18;;
39188;SDS011;24915;50.858;4.376;2023-04-10T03:43:30;6.88;;;6.18;;
39188;SDS011;24915;50.858;4.376;2023-04-10T03:45:56;6.97;;;5.90;;
39188;SDS011;24915;50.858;4.376;2023-04-10T03:48:22;7.82;;;5.63;;
39188;SDS011;24915;50.858;4.376;2023-04-10T03:50:47;11.30;;;5.85;;
39188;SDS011;24915;50.858;4.376;2023-04-10T03:53:13;6.97;;;5.97;;
39188;SDS011;24915;50.858;4.376;2023-04-10T03:55:39;7.90;;;5.63;;
39188;SDS011;24915;50.858;4.376;2023-04-10T03:58:05;8.48;;;6.35;;
39188;SDS011;24915;50.858;4.376;2023-04-10T04:00:31;6.95;;;6.22;;
39188;SDS011;24915;50.858;4.376;2023-04-10T04:02:57;7.38;;;6.38;;
39188;SDS011;24915;50.858;4.376;2023-04-10T04:05:24;7.63;;;5.82;;
39188;SDS011;24915;50.858;4.376;2023-04-10T04:07:50;7.50;;;6.53;;
39188;SDS011;24915;50.858;4.376;2023-04-10T04:10:16;6.78;;;5.90;;
39188;SDS011;24915;50.858;4.376;2023-04-10T04:12:42;7.88;;;6.22;;
39188;SDS011;24915;50.858;4.376;2023-04-10T04:15:07;7.68;;;6.28;;
39188;SDS011;24915;50.858;4.376;2023-04-10T04:17:33;9.85;;;6.50;;
39188;SDS011;24915;50.858;4.376;2023-04-10T04:19:59;7.05;;;5.85;;
39188;SDS011;24915;50.858;4.376;2023-04-10T04:22:25;7.60;;;6.03;;
39188;SDS011;24915;50.858;4.376;2023-04-10T04:24:51;8.25;;;6.20;;
39188;SDS011;24915;50.858;4.376;2023-04-10T04:27:17;8.13;;;6.40;;
39188;SDS011;24915;50.858;4.376;2023-04-10T04:29:45;7.57;;;5.95;;
39188;SDS011;24915;50.858;4.376;2023-04-10T04:32:11;6.65;;;5.88;;
39188;SDS011;24915;50.858;4.376;2023-04-10T04:34:37;8.32;;;5.97;;
39188;SDS011;24915;50.858;4.376;2023-04-10T04:37:02;8.82;;;5.68;;
39188;SDS011;24915;50.858;4.376;2023-04-10T04:39:29;6.93;;;6.00;;
39188;SDS011;24915;50.858;4.376;2023-04-10T04:41:55;7.05;;;6.15;;
39188;SDS011;24915;50.858;4.376;2023-04-10T04:44:21;7.90;;;5.65;;
39188;SDS011;24915;50.858;4.376;2023-04-10T04:46:46;7.00;;;6.28;;
39188;SDS011;24915;50.858;4.376;2023-04-10T04:49:12;10.13;;;6.30;;
39188;SDS011;24915;50.858;4.376;2023-04-10T04:51:37;7.30;;;6.25;;
39188;SDS011;24915;50.858;4.376;2023-04-10T04:54:03;6.78;;;6.07;;
39188;SDS011;24915;50.858;4.376;2023-04-10T04:56:29;6.35;;;5.75;;
39188;SDS011;24915;50.858;4.376;2023-04-10T04:58:55;9.18;;;6.65;;
39188;SDS011;24915;50.858;4.376;2023-04-10T05:01:21;9.45;;;6.53;;
39188;SDS011;24915;50.858;4.376;2023-04-10T05:03:46;7.80;;;6.05;;
39188;SDS011;24915;50.858;4.376;2023-04-10T05:06:12;6.65;;;6.03;;
39188;SDS011;24915;50.858;4.376;2023-04-10T05:08:38;7.13;;;6.05;;
39188;SDS011;24915;50.858;4.376;2023-04-10T05:11:04;7.80;;;5.93;;
39188;SDS011;24915;50.858;4.376;2023-04-10T05:13:30;6.25;;;5.40;;
39188;SDS011;24915;50.858;4.376;2023-04-10T05:15:56;10.77;;;6.35;;
39188;SDS011;24915;50.858;4.376;2023-04-10T05:18:21;6.50;;;5.82;;
39188;SDS011;24915;50.858;4.376;2023-04-10T05:20:48;6.70;;;6.03;;
39188;SDS011;24915;50.858;4.376;2023-04-10T05:23:14;9.07;;;6.25;;
39188;SDS011;24915;50.858;4.376;2023-04-10T05:25:40;6.78;;;6.05;;
39188;SDS011;24915;50.858;4.376;2023-04-10T05:28:06;6.55;;;5.60;;
39188;SDS011;24915;50.858;4.376;2023-04-10T05:30:32;7.68;;;5.88;;
39188;SDS011;24915;50.858;4.376;2023-04-10T05:32:57;7.78;;;6.00;;
39188;SDS011;24915;50.858;4.376;2023-04-10T05:35:23;8.25;;;6.13;;
39188;SDS011;24915;50.858;4.376;2023-04-10T05:37:49;6.43;;;5.82;;
39188;SDS011;24915;50.858;4.376;2023-04-10T05:40:14;8.65;;;6.43;;
39188;SDS011;24915;50.858;4.376;2023-04-10T05:42:41;6.28;;;5.68;;
39188;SDS011;24915;50.858;4.376;2023-04-10T05:45:07;7.40;;;6.00;;
39188;SDS011;24915;50.858;4.376;2023-04-10T05:47:33;6.82;;;6.13;;
39188;SDS011;24915;50.858;4.376;2023-04-10T05:49:59;8.15;;;6.15;;
39188;SDS011;24915;50.858;4.376;2023-04-10T05:52:24;6.35;;;5.75;;
39188;SDS011;24915;50.858;4.376;2023-04-10T05:54:50;6.72;;;5.97;;
39188;SDS011;24915;50.858;4.376;2023-04-10T05:57:16;8.25;;;6.38;;
39188;SDS011;24915;50.858;4.376;2023-04-10T05:59:41;6.75;;;6.05;;
39188;SDS011;24915;50.858;4.376;2023-04-10T06:02:07;6.63;;;5.88;;
39188;SDS011;24915;50.858;4.376;2023-04-10T06:04:33;6.70;;;5.85;;
39188;SDS011;24915;50.858;4.376;2023-04-10T06:06:59;7.28;;;6.22;;
39188;SDS011;24915;50.858;4.376;2023-04-10T06:09:25;16.75;;;7.30;;
39188;SDS011;24915;50.858;4.376;2023-04-10T06:11:51;6.22;;;5.63;;
39188;SDS011;24915;50.858;4.376;2023-04-10T06:14:18;6.18;;;5.57;;
39188;SDS011;24915;50.858;4.376;2023-04-10T06:16:44;6.47;;;5.88;;
39188;SDS011;24915;50.858;4.376;2023-04-10T06:19:10;8.82;;;6.05;;
39188;SDS011;24915;50.858;4.376;2023-04-10T06:21:36;6.18;;;5.60;;
39188;SDS011;24915;50.858;4.376;2023-04-10T06:24:01;7.85;;;5.65;;
39188;SDS011;24915;50.858;4.376;2023-04-10T06:26:27;8.77;;;5.78;;
39188;SDS011;24915;50.858;4.376;2023-04-10T06:28:53;6.22;;;5.63;;
39188;SDS011;24915;50.858;4.376;2023-04-10T06:31:19;6.35;;;5.47;;
39188;SDS011;24915;50.858;4.376;2023-04-10T06:33:48;6.35;;;5.70;;
39188;SDS011;24915;50.858;4.376;2023-04-10T06:36:14;8.93;;;5.45;;
39188;SDS011;24915;50.858;4.376;2023-04-10T06:38:40;6.28;;;5.60;;
39188;SDS011;24915;50.858;4.376;2023-04-10T06:41:06;7.65;;;6.28;;
39188;SDS011;24915;50.858;4.376;2023-04-10T06:43:32;7.05;;;5.75;;
39188;SDS011;24915;50.858;4.376;2023-04-10T06:45:59;6.75;;;5.43;;
39188;SDS011;24915;50.858;4.376;2023-04-10T06:48:25;9.38;;;5.75;;
39188;SDS011;24915;50.858;4.376;2023-04-10T06:50:51;7.95;;;6.13;;
39188;SDS011;24915;50.858;4.376;2023-04-10T06:53:16;7.63;;;6.30;;
39188;SDS011;24915;50.858;4.376;2023-04-10T06:55:42;6.60;;;5.80;;
39188;SDS011;24915;50.858;4.376;2023-04-10T06:58:07;6.30;;;5.35;;
39188;SDS011;24915;50.858;4.376;2023-04-10T07:00:33;6.18;;;5.57;;
39188;SDS011;24915;50.858;4.376;2023-04-10T07:02:59;6.82;;;5.80;;
39188;SDS011;24915;50.858;4.376;2023-04-10T07:05:24;5.93;;;5.40;;
39188;SDS011;24915;50.858;4.376;2023-04-10T07:07:50;6.22;;;5.20;;
39188;SDS011;24915;50.858;4.376;2023-04-10T07:10:16;8.00;;;5.93;;
39188;SDS011;24915;50.858;4.376;2023-04-10T07:12:41;6.15;;;5.60;;
39188;SDS011;24915;50.858;4.376;2023-04-10T07:15:07;9.55;;;6.00;;
39188;SDS011;24915;50.858;4.376;2023-04-10T07:17:33;9.68;;;5.88;;
39188;SDS011;24915;50.858;4.376;2023-04-10T07:19:59;6.82;;;5.75;;
39188;SDS011;24915;50.858;4.376;2023-04-10T07:22:25;5.97;;;5.45;;
39188;SDS011;24915;50.858;4.376;2023-04-10T07:24:51;6.45;;;5.60;;
39188;SDS011;24915;50.858;4.376;2023-04-10T07:27:16;6.45;;;5.50;;
39188;SDS011;24915;50.858;4.376;2023-04-10T07:29:42;9.18;;;5.82;;
39188;SDS011;24915;50.858;4.376;2023-04-10T07:32:08;6.18;;;5.60;;
39188;SDS011;24915;50.858;4.376;2023-04-10T07:34:33;6.13;;;5.50;;
39188;SDS011;24915;50.858;4.376;2023-04-10T07:36:59;7.05;;;5.70;;
39188;SDS011;24915;50.858;4.376;2023-04-10T07:39:24;5.60;;;5.13;;
39188;SDS011;24915;50.858;4.376;2023-04-10T07:41:52;8.57;;;5.63;;
39188;SDS011;24915;50.858;4.376;2023-04-10T07:44:18;6.65;;;5.22;;
39188;SDS011;24915;50.858;4.376;2023-04-10T07:46:44;7.40;;;5.70;;
39188;SDS011;24915;50.858;4.376;2023-04-10T07:49:09;6.20;;;5.60;;
39188;SDS011;24915;50.858;4.376;2023-04-10T07:51:37;9.38;;;5.93;;
39188;SDS011;24915;50.858;4.376;2023-04-10T07:54:03;8.55;;;5.88;;
39188;SDS011;24915;50.858;4.376;2023-04-10T07:56:28;6.88;;;5.63;;
39188;SDS011;24915;50.858;4.376;2023-04-10T07:59:00;6.20;;;5.50;;
39188;SDS011;24915;50.858;4.376;2023-04-10T08:01:26;7.00;;;5.95;;
39188;SDS011;24915;50.858;4.376;2023-04-10T08:03:52;7.68;;;5.97;;
39188;SDS011;24915;50.858;4.376;2023-04-10T08:06:20;8.00;;;5.57;;
39188;SDS011;24915;50.858;4.376;2023-04-10T08:08:45;6.90;;;5.60;;
39188;SDS011;24915;50.858;4.376;2023-04-10T08:11:24;9.90;;;6.50;;
39188;SDS011;24915;50.858;4.376;2023-04-10T08:13:55;8.00;;;5.85;;
39188;SDS011;24915;50.858;4.376;2023-04-10T08:16:23;7.38;;;6.00;;
39188;SDS011;24915;50.858;4.376;2023-04-10T08:18:50;10.90;;;6.35;;
39188;SDS011;24915;50.858;4.376;2023-04-10T08:21:16;9.32;;;6.13;;
39188;SDS011;24915;50.858;4.376;2023-04-10T08:23:43;8.80;;;6.15;;
39188;SDS011;24915;50.858;4.376;2023-04-10T08:26:10;7.53;;;5.70;;
39188;SDS011;24915;50.858;4.376;2023-04-10T08:28:36;7.82;;;6.07;;
39188;SDS011;24915;50.858;4.376;2023-04-10T08:31:02;9.82;;;6.18;;
39188;SDS011;24915;50.858;4.376;2023-04-10T08:33:27;8.60;;;6.03;;
39188;SDS011;24915;50.858;4.376;2023-04-10T08:35:54;9.52;;;6.22;;
39188;SDS011;24915;50.858;4.376;2023-04-10T08:38:20;10.02;;;6.45;;
39188;SDS011;24915;50.858;4.376;2023-04-10T08:40:47;9.48;;;6.40;;
39188;SDS011;24915;50.858;4.376;2023-04-10T08:43:13;8.98;;;5.55;;
39188;SDS011;24915;50.858;4.376;2023-04-10T08:45:39;9.63;;;6.00;;
39188;SDS011;24915;50.858;4.376;2023-04-10T08:48:05;8.13;;;6.68;;
39188;SDS011;24915;50.858;4.376;2023-04-10T08:50:32;8.15;;;6.50;;
39188;SDS011;24915;50.858;4.376;2023-04-10T08:53:03;9.55;;;5.88;;
39188;SDS011;24915;50.858;4.376;2023-04-10T08:55:34;6.75;;;5.70;;
39188;SDS011;24915;50.858;4.376;2023-04-10T08:58:00;7.20;;;6.03;;
39188;SDS011;24915;50.858;4.376;2023-04-10T09:00:27;8.20;;;5.90;;
39188;SDS011;24915;50.858;4.376;2023-04-10T09:02:55;6.70;;;5.80;;
39188;SDS011;24915;50.858;4.376;2023-04-10T09:05:30;8.00;;;6.68;;
39188;SDS011;24915;50.858;4.376;2023-04-10T09:07:57;8.07;;;6.10;;
39188;SDS011;24915;50.858;4.376;2023-04-10T09:10:22;10.65;;;6.60;;
39188;SDS011;24915;50.858;4.376;2023-04-10T09:12:48;8.43;;;6.40;;
39188;SDS011;24915;50.858;4.376;2023-04-10T09:15:14;6.95;;;5.90;;
39188;SDS011;24915;50.858;4.376;2023-04-10T09:20:29;6.63;;;5.80;;
39188;SDS011;24915;50.858;4.376;2023-04-10T09:22:56;7.63;;;5.70;;
39188;SDS011;24915;50.858;4.376;2023-04-10T09:25:32;8.40;;;5.70;;
39188;SDS011;24915;50.858;4.376;2023-04-10T09:28:04;11.80;;;6.20;;
39188;SDS011;24915;50.858;4.376;2023-04-10T09:30:31;9.65;;;5.95;;
39188;SDS011;24915;50.858;4.376;2023-04-10T09:32:59;16.42;;;6.32;;
39188;SDS011;24915;50.858;4.376;2023-04-10T09:35:33;17.17;;;7.40;;
39188;SDS011;24915;50.858;4.376;2023-04-10T09:38:01;13.50;;;6.82;;
39188;SDS011;24915;50.858;4.376;2023-04-10T09:40:37;14.77;;;7.25;;
39188;SDS011;24915;50.858;4.376;2023-04-10T09:43:15;13.55;;;6.72;;
39188;SDS011;24915;50.858;4.376;2023-04-10T09:45:48;10.82;;;6.68;;
39188;SDS011;24915;50.858;4.376;2023-04-10T09:48:15;13.05;;;6.70;;
39188;SDS011;24915;50.858;4.376;2023-04-10T09:50:41;11.75;;;6.15;;
39188;SDS011;24915;50.858;4.376;2023-04-10T09:53:10;9.65;;;6.00;;
39188;SDS011;24915;50.858;4.376;2023-04-10T09:55:40;9.60;;;5.70;;
39188;SDS011;24915;50.858;4.376;2023-04-10T09:58:08;7.63;;;5.70;;
39188;SDS011;24915;50.858;4.376;2023-04-10T10:00:44;15.23;;;5.68;;
39188;SDS011;24915;50.858;4.376;2023-04-10T10:03:12;6.78;;;5.30;;
39188;SDS011;24915;50.858;4.376;2023-04-10T10:05:44;6.40;;;5.10;;
39188;SDS011;24915;50.858;4.376;2023-04-10T10:08:12;7.72;;;5.03;;
39188;SDS011;24915;50.858;4.376;2023-04-10T10:10:39;7.38;;;5.13;;
39188;SDS011;24915;50.858;4.376;2023-04-10T10:13:09;6.30;;;5.70;;
39188;SDS011;24915;50.858;4.376;2023-04-10T10:16:00;5.43;;;4.65;;
39188;SDS011;24915;50.858;4.376;2023-04-10T10:21:01;6.18;;;4.32;;
39188;SDS011;24915;50.858;4.376;2023-04-10T10:23:28;5.68;;;4.90;;
39188;SDS011;24915;50.858;4.376;2023-04-10T10:25:57;5.45;;;5.05;;
39188;SDS011;24915;50.858;4.376;2023-04-10T10:28:24;5.70;;;5.13;;
39188;SDS011;24915;50.858;4.376;2023-04-10T10:30:52;7.57;;;4.95;;
39188;SDS011;24915;50.858;4.376;2023-04-10T10:33:19;8.07;;;4.43;;
39188;SDS011;24915;50.858;4.376;2023-04-10T10:35:44;5.20;;;4.45;;
39188;SDS011;24915;50.858;4.376;2023-04-10T10:38:10;4.93;;;4.32;;
39188;SDS011;24915;50.858;4.376;2023-04-10T10:40:40;5.30;;;4.22;;
39188;SDS011;24915;50.858;4.376;2023-04-10T10:43:22;5.63;;;4.32;;
39188;SDS011;24915;50.858;4.376;2023-04-10T10:45:53;7.80;;;4.30;;
39188;SDS011;24915;50.858;4.376;2023-04-10T10:48:37;4.30;;;3.90;;
39188;SDS011;24915;50.858;4.376;2023-04-10T10:51:03;5.22;;;3.80;;
39188;SDS011;24915;50.858;4.376;2023-04-10T10:53:30;4.75;;;3.55;;
39188;SDS011;24915;50.858;4.376;2023-04-10T10:55:56;5.57;;;3.88;;
39188;SDS011;24915;50.858;4.376;2023-04-10T10:58:44;3.47;;;3.17;;
39188;SDS011;24915;50.858;4.376;2023-04-10T11:01:10;4.40;;;3.22;;
39188;SDS011;24915;50.858;4.376;2023-04-10T11:03:35;4.15;;;3.42;;
39188;SDS011;24915;50.858;4.376;2023-04-10T11:06:06;4.78;;;3.22;;
39188;SDS011;24915;50.858;4.376;2023-04-10T11:11:16;5.20;;;3.22;;
39188;SDS011;24915;50.858;4.376;2023-04-10T11:16:44;3.63;;;3.33;;
39188;SDS011;24915;50.858;4.376;2023-04-10T11:19:11;3.75;;;3.45;;
39188;SDS011;24915;50.858;4.376;2023-04-10T11:24:50;5.45;;;3.63;;
39188;SDS011;24915;50.858;4.376;2023-04-10T11:32:51;3.97;;;3.53;;
39188;SDS011;24915;50.858;4.376;2023-04-10T11:35:18;3.63;;;3.33;;
39188;SDS011;24915;50.858;4.376;2023-04-10T11:37:44;3.42;;;3.13;;
39188;SDS011;24915;50.858;4.376;2023-04-10T11:40:10;3.92;;;2.80;;
39188;SDS011;24915;50.858;4.376;2023-04-10T11:42:36;3.33;;;2.97;;
39188;SDS011;24915;50.858;4.376;2023-04-10T11:47:52;3.88;;;3.10;;
39188;SDS011;24915;50.858;4.376;2023-04-10T11:50:19;3.72;;;3.10;;
39188;SDS011;24915;50.858;4.376;2023-04-10T11:52:46;3.72;;;3.03;;
39188;SDS011;24915;50.858;4.376;2023-04-10T11:55:14;4.65;;;3.25;;
39188;SDS011;24915;50.858;4.376;2023-04-10T11:57:40;3.88;;;3.10;;
39188;SDS011;24915;50.858;4.376;2023-04-10T12:00:06;10.65;;;3.20;;
39188;SDS011;24915;50.858;4.376;2023-04-10T12:02:33;5.13;;;3.25;;
39188;SDS011;24915;50.858;4.376;2023-04-10T12:04:58;5.38;;;3.00;;
39188;SDS011;24915;50.858;4.376;2023-04-10T12:07:25;5.07;;;3.28;;
39188;SDS011;24915;50.858;4.376;2023-04-10T12:09:59;3.08;;;2.88;;
39188;SDS011;24915;50.858;4.376;2023-04-10T12:12:35;3.33;;;2.80;;
39188;SDS011;24915;50.858;4.376;2023-04-10T12:15:02;3.28;;;2.60;;
39188;SDS011;24915;50.858;4.376;2023-04-10T12:17:28;2.92;;;2.65;;
39188;SDS011;24915;50.858;4.376;2023-04-10T12:19:54;5.97;;;2.70;;
39188;SDS011;24915;50.858;4.376;2023-04-10T12:22:21;2.78;;;2.58;;
39188;SDS011;24915;50.858;4.376;2023-04-10T12:24:48;3.83;;;2.83;;
39188;SDS011;24915;50.858;4.376;2023-04-10T12:27:18;5.72;;;3.00;;
39188;SDS011;24915;50.858;4.376;2023-04-10T12:29:46;3.10;;;2.70;;
39188;SDS011;24915;50.858;4.376;2023-04-10T12:32:12;3.15;;;2.55;;
39188;SDS011;24915;50.858;4.376;2023-04-10T12:34:39;3.65;;;2.55;;
39188;SDS011;24915;50.858;4.376;2023-04-10T12:37:05;3.20;;;2.28;;
39188;SDS011;24915;50.858;4.376;2023-04-10T12:39:31;2.63;;;2.42;;
39188;SDS011;24915;50.858;4.376;2023-04-10T12:42:13;7.05;;;2.60;;
39188;SDS011;24915;50.858;4.376;2023-04-10T12:44:57;4.32;;;2.63;;
39188;SDS011;24915;50.858;4.376;2023-04-10T12:47:25;3.95;;;2.42;;
39188;SDS011;24915;50.858;4.376;2023-04-10T12:50:01;4.93;;;3.10;;
39188;SDS011;24915;50.858;4.376;2023-04-10T12:52:28;5.28;;;2.50;;
39188;SDS011;24915;50.858;4.376;2023-04-10T12:54:54;6.65;;;3.05;;
39188;SDS011;24915;50.858;4.376;2023-04-10T12:57:32;5.93;;;3.30;;
39188;SDS011;24915;50.858;4.376;2023-04-10T12:59:58;3.53;;;3.22;;
39188;SDS011;24915;50.858;4.376;2023-04-10T13:02:26;4.38;;;2.85;;
39188;SDS011;24915;50.858;4.376;2023-04-10T13:04:52;3.55;;;3.05;;
39188;SDS011;24915;50.858;4.376;2023-04-10T13:07:18;3.38;;;2.92;;
39188;SDS011;24915;50.858;4.376;2023-04-10T13:09:44;3.30;;;3.00;;
39188;SDS011;24915;50.858;4.376;2023-04-10T13:12:11;4.05;;;3.75;;
39188;SDS011;24915;50.858;4.376;2023-04-10T13:14:37;3.80;;;3.22;;
39188;SDS011;24915;50.858;4.376;2023-04-10T13:17:02;5.30;;;3.00;;
39188;SDS011;24915;50.858;4.376;2023-04-10T13:19:29;3.25;;;2.95;;
39188;SDS011;24915;50.858;4.376;2023-04-10T13:21:55;3.35;;;3.00;;
39188;SDS011;24915;50.858;4.376;2023-04-10T13:24:20;3.33;;;2.95;;
39188;SDS011;24915;50.858;4.376;2023-04-10T13:26:46;5.80;;;3.10;;
39188;SDS011;24915;50.858;4.376;2023-04-10T13:29:12;5.80;;;3.00;;
39188;SDS011;24915;50.858;4.376;2023-04-10T13:31:37;3.30;;;3.00;;
39188;SDS011;24915;50.858;4.376;2023-04-10T13:34:03;3.15;;;2.85;;
39188;SDS011;24915;50.858;4.376;2023-04-10T13:36:29;2.85;;;2.65;;
39188;SDS011;24915;50.858;4.376;2023-04-10T13:38:55;5.43;;;3.28;;
39188;SDS011;24915;50.858;4.376;2023-04-10T13:41:21;3.55;;;3.25;;
39188;SDS011;24915;50.858;4.376;2023-04-10T13:43:47;3.38;;;3.00;;
39188;SDS011;24915;50.858;4.376;2023-04-10T13:46:13;3.30;;;3.00;;
39188;SDS011;24915;50.858;4.376;2023-04-10T13:48:39;5.65;;;3.25;;
39188;SDS011;24915;50.858;4.376;2023-04-10T13:51:05;6.00;;;4.00;;
39188;SDS011;24915;50.858;4.376;2023-04-10T13:53:31;3.33;;;3.03;;
39188;SDS011;24915;50.858;4.376;2023-04-10T13:55:57;3.60;;;3.00;;
39188;SDS011;24915;50.858;4.376;2023-04-10T13:58:22;4.40;;;3.28;;
39188;SDS011;24915;50.858;4.376;2023-04-10T14:00:50;3.42;;;2.90;;
39188;SDS011;24915;50.858;4.376;2023-04-10T14:03:16;3.15;;;2.90;;
39188;SDS011;24915;50.858;4.376;2023-04-10T14:05:41;5.55;;;3.03;;
39188;SDS011;24915;50.858;4.376;2023-04-10T14:08:08;6.22;;;3.00;;
39188;SDS011;24915;50.858;4.376;2023-04-10T14:10:36;3.10;;;2.90;;
39188;SDS011;24915;50.858;4.376;2023-04-10T14:13:03;3.65;;;2.97;;
39188;SDS011;24915;50.858;4.376;2023-04-10T14:15:30;3.58;;;2.78;;
39188;SDS011;24915;50.858;4.376;2023-04-10T14:17:56;3.50;;;2.88;;
39188;SDS011;24915;50.858;4.376;2023-04-10T14:20:22;5.50;;;2.80;;
39188;SDS011;24915;50.858;4.376;2023-04-10T14:22:48;9.30;;;2.70;;
39188;SDS011;24915;50.858;4.376;2023-04-10T14:25:14;4.15;;;2.53;;
39188;SDS011;24915;50.858;4.376;2023-04-10T14:27:40;3.35;;;3.15;;
39188;SDS011;24915;50.858;4.376;2023-04-10T14:30:07;6.00;;;2.90;;
39188;SDS011;24915;50.858;4.376;2023-04-10T14:32:33;6.22;;;3.13;;
39188;SDS011;24915;50.858;4.376;2023-04-10T14:34:59;4.78;;;2.85;;
39188;SDS011;24915;50.858;4.376;2023-04-10T14:37:25;3.10;;;2.90;;
39188;SDS011;24915;50.858;4.376;2023-04-10T14:39:50;3.90;;;2.85;;
39188;SDS011;24915;50.858;4.376;2023-04-10T14:42:16;7.00;;;3.10;;
39188;SDS011;24915;50.858;4.376;2023-04-10T14:44:41;3.97;;;2.50;;
39188;SDS011;24915;50.858;4.376;2023-04-10T14:47:07;3.67;;;2.35;;
39188;SDS011;24915;50.858;4.376;2023-04-10T14:49:33;4.07;;;2.42;;
39188;SDS011;24915;50.858;4.376;2023-04-10T14:51:59;3.60;;;2.53;;
39188;SDS011;24915;50.858;4.376;2023-04-10T14:54:24;4.45;;;2.65;;
39188;SDS011;24915;50.858;4.376;2023-04-10T14:56:50;3.83;;;2.88;;
39188;SDS011;24915;50.858;4.376;2023-04-10T14:59:16;4.65;;;2.83;;
39188;SDS011;24915;50.858;4.376;2023-04-10T15:01:42;4.90;;;3.20;;
39188;SDS011;24915;50.858;4.376;2023-04-10T15:04:08;5.80;;;3.75;;
39188;SDS011;24915;50.858;4.376;2023-04-10T15:06:33;5.68;;;3.45;;
39188;SDS011;24915;50.858;4.376;2023-04-10T15:08:59;5.03;;;3.70;;
39188;SDS011;24915;50.858;4.376;2023-04-10T15:11:25;4.78;;;3.92;;
39188;SDS011;24915;50.858;4.376;2023-04-10T15:13:51;7.15;;;3.60;;
39188;SDS011;24915;50.858;4.376;2023-04-10T15:16:16;3.90;;;3.50;;
39188;SDS011;24915;50.858;4.376;2023-04-10T15:18:42;5.60;;;3.22;;
39188;SDS011;24915;50.858;4.376;2023-04-10T15:21:11;4.57;;;3.08;;
39188;SDS011;24915;50.858;4.376;2023-04-10T15:23:37;5.05;;;3.42;;
39188;SDS011;24915;50.858;4.376;2023-04-10T15:26:02;10.38;;;3.60;;